createdAt,value
2022-12-08T00:00:08.452Z,19.10
2022-12-08T00:02:44.283Z,18.25
2022-12-08T00:05:29.277Z,15.95
2022-12-08T00:08:14.210Z,16.67
2022-12-08T00:10:51.057Z,14.73
2022-12-08T00:13:17.628Z,15.73
2022-12-08T00:15:44.206Z,15.20
2022-12-08T00:18:10.731Z,16.00
2022-12-08T00:20:37.317Z,13.10
2022-12-08T00:23:04.354Z,14.18
2022-12-08T00:25:34.830Z,14.40
2022-12-08T00:28:02.691Z,13.70
2022-12-08T00:30:29.238Z,13.55
2022-12-08T00:32:55.884Z,14.55
2022-12-08T00:35:22.405Z,12.90
2022-12-08T00:37:48.972Z,14.00
2022-12-08T00:40:15.490Z,13.50
2022-12-08T00:42:42.032Z,12.38
2022-12-08T00:45:08.918Z,13.50
2022-12-08T00:47:35.502Z,15.82
2022-12-08T00:50:02.513Z,15.18
2022-12-08T00:52:29.318Z,13.68
2022-12-08T00:54:55.995Z,12.18
2022-12-08T00:57:22.701Z,12.02
2022-12-08T00:59:49.228Z,12.50
2022-12-08T01:02:15.850Z,12.88
2022-12-08T01:04:42.487Z,12.85
2022-12-08T01:07:09.234Z,12.45
2022-12-08T01:09:36.014Z,14.18
2022-12-08T01:12:02.586Z,12.80
2022-12-08T01:14:29.116Z,13.98
2022-12-08T01:16:55.785Z,12.13
2022-12-08T01:19:22.408Z,12.98
2022-12-08T01:21:48.983Z,13.98
2022-12-08T01:24:18.544Z,14.63
2022-12-08T01:26:46.011Z,15.80
2022-12-08T01:29:12.991Z,12.70
2022-12-08T01:31:40.281Z,13.90
2022-12-08T01:34:08.183Z,15.10
2022-12-08T01:36:38.686Z,13.15
2022-12-08T01:39:08.742Z,13.90
2022-12-08T01:41:37.632Z,13.52
2022-12-08T01:44:04.449Z,14.43
2022-12-08T01:46:33.119Z,15.45
2022-12-08T01:49:15.871Z,13.07
2022-12-08T01:51:48.491Z,16.88
2022-12-08T01:54:15.770Z,15.02
2022-12-08T01:56:52.911Z,15.75
2022-12-08T01:59:19.804Z,18.05
2022-12-08T02:01:51.181Z,14.30
2022-12-08T02:04:18.072Z,15.93
2022-12-08T02:06:47.444Z,14.23
2022-12-08T02:09:14.716Z,16.67
2022-12-08T02:11:41.292Z,15.95
2022-12-08T02:14:10.831Z,16.92
2022-12-08T02:16:43.358Z,17.45
2022-12-08T02:19:37.839Z,17.63
2022-12-08T02:22:07.365Z,16.02
2022-12-08T02:25:04.724Z,17.13
2022-12-08T02:27:44.215Z,15.35
2022-12-08T02:30:17.201Z,17.80
2022-12-08T02:33:20.736Z,16.50
2022-12-08T02:35:58.622Z,15.65
2022-12-08T02:39:19.544Z,15.45
2022-12-08T02:41:56.897Z,14.75
2022-12-08T02:44:29.484Z,15.13
2022-12-08T02:47:02.696Z,14.35
2022-12-08T02:49:33.337Z,15.75
2022-12-08T02:52:11.942Z,15.68
2022-12-08T02:54:46.465Z,13.77
2022-12-08T02:57:25.108Z,12.75
2022-12-08T03:00:07.512Z,15.88
2022-12-08T03:02:43.198Z,13.63
2022-12-08T03:05:31.456Z,13.95
2022-12-08T03:08:21.147Z,13.55
2022-12-08T03:10:56.115Z,14.10
2022-12-08T03:13:33.314Z,11.95
2022-12-08T03:16:02.754Z,13.38
2022-12-08T03:18:33.709Z,11.13
2022-12-08T03:21:01.073Z,11.57
2022-12-08T03:23:30.236Z,10.82
2022-12-08T03:26:04.447Z,14.25
2022-12-08T03:28:31.640Z,13.93
2022-12-08T03:31:02.486Z,11.80
2022-12-08T03:33:33.709Z,11.05
2022-12-08T03:36:04.131Z,13.18
2022-12-08T03:38:41.578Z,10.45
2022-12-08T03:41:20.568Z,10.32
2022-12-08T03:43:47.757Z,11.55
2022-12-08T03:46:15.828Z,11.05
2022-12-08T03:48:42.932Z,11.80
2022-12-08T03:51:09.896Z,12.55
2022-12-08T03:53:36.653Z,10.93
2022-12-08T03:56:06.025Z,11.82
2022-12-08T03:58:37.260Z,10.40
2022-12-08T04:01:04.152Z,11.48
2022-12-08T04:03:30.747Z,9.55
2022-12-08T04:05:57.429Z,10.30
2022-12-08T04:08:24.226Z,11.15
2022-12-08T04:10:50.934Z,9.80
2022-12-08T04:13:17.488Z,10.07
2022-12-08T04:15:48.568Z,9.73
2022-12-08T04:18:16.104Z,10.55
2022-12-08T04:20:44.436Z,12.55
2022-12-08T04:23:12.259Z,10.07
2022-12-08T04:25:39.560Z,10.18
2022-12-08T04:28:06.595Z,9.25
2022-12-08T04:30:33.817Z,10.00
2022-12-08T04:33:00.716Z,9.65
2022-12-08T04:35:30.186Z,9.35
2022-12-08T04:37:56.995Z,10.27
2022-12-08T04:40:23.975Z,8.32
2022-12-08T04:42:50.572Z,10.55
2022-12-08T04:45:17.357Z,9.45
2022-12-08T04:47:43.931Z,10.25
2022-12-08T04:50:11.013Z,7.20
2022-12-08T04:52:37.648Z,8.27
2022-12-08T04:55:04.528Z,11.05
2022-12-08T04:57:31.101Z,9.55
2022-12-08T04:59:57.664Z,10.18
2022-12-08T05:02:24.378Z,8.48
2022-12-08T05:07:17.653Z,8.32
2022-12-08T05:09:44.891Z,10.85
2022-12-08T05:12:11.518Z,9.93
2022-12-08T05:14:38.162Z,10.27
2022-12-08T05:17:09.349Z,15.35
2022-12-08T05:19:36.408Z,16.55
2022-12-08T05:22:02.961Z,18.70
2022-12-08T05:24:29.593Z,18.25
2022-12-08T05:26:56.185Z,16.58
2022-12-08T05:29:22.804Z,14.50
2022-12-08T05:31:49.540Z,9.70
2022-12-08T05:34:16.253Z,11.88
2022-12-08T05:36:42.936Z,9.90
2022-12-08T05:39:13.239Z,11.25
2022-12-08T05:41:39.927Z,11.40
2022-12-08T05:44:07.485Z,10.45
2022-12-08T05:46:34.506Z,9.43
2022-12-08T05:49:02.406Z,12.70
2022-12-08T05:51:29.645Z,10.52
2022-12-08T05:53:56.702Z,9.27
2022-12-08T05:56:23.609Z,11.60
2022-12-08T05:58:50.467Z,12.10
2022-12-08T06:01:24.610Z,10.73
2022-12-08T06:03:52.084Z,12.43
2022-12-08T06:06:19.111Z,15.77
2022-12-08T06:08:45.748Z,21.80
2022-12-08T06:11:39.147Z,18.67
2022-12-08T06:14:10.346Z,14.02
2022-12-08T06:16:36.972Z,13.23
2022-12-08T06:19:03.604Z,11.32
2022-12-08T06:21:30.259Z,12.65
2022-12-08T06:23:56.920Z,11.73
2022-12-08T06:26:23.561Z,13.48
2022-12-08T06:28:50.397Z,11.30
2022-12-08T06:31:22.765Z,12.02
2022-12-08T06:33:49.764Z,13.18
2022-12-08T06:36:19.964Z,11.93
2022-12-08T06:38:48.103Z,14.75
2022-12-08T06:41:15.082Z,11.70
2022-12-08T06:43:42.487Z,12.38
2022-12-08T06:46:13.369Z,12.63
2022-12-08T06:48:40.074Z,13.95
2022-12-08T06:51:18.777Z,14.73
2022-12-08T06:53:46.596Z,11.52
2022-12-08T06:56:14.356Z,10.30
2022-12-08T06:58:40.990Z,11.48
2022-12-08T07:01:10.034Z,13.40
2022-12-08T07:03:37.778Z,13.18
2022-12-08T07:06:05.171Z,16.95
2022-12-08T07:08:32.888Z,18.15
2022-12-08T07:10:59.518Z,15.35
2022-12-08T07:13:26.092Z,14.10
2022-12-08T07:15:52.667Z,11.77
2022-12-08T07:18:19.284Z,12.05
2022-12-08T07:20:45.950Z,12.23
2022-12-08T07:23:12.676Z,12.15
2022-12-08T07:25:39.219Z,10.20
2022-12-08T07:28:10.908Z,13.75
2022-12-08T07:30:38.559Z,11.63
2022-12-08T07:33:08.161Z,12.07
2022-12-08T07:35:35.361Z,20.73
2022-12-08T07:38:02.560Z,20.52
2022-12-08T07:40:30.060Z,16.15
2022-12-08T07:42:56.689Z,14.40
2022-12-08T07:45:28.292Z,14.13
2022-12-08T07:47:57.811Z,12.68
2022-12-08T07:50:24.599Z,17.60
2022-12-08T07:52:51.171Z,18.45
2022-12-08T07:55:17.706Z,15.60
2022-12-08T07:57:44.390Z,15.30
2022-12-08T08:00:11.522Z,14.75
2022-12-08T08:02:41.633Z,16.83
2022-12-08T08:05:09.023Z,14.43
2022-12-08T08:07:37.215Z,13.70
2022-12-08T08:10:06.809Z,15.85
2022-12-08T08:12:33.756Z,14.57
2022-12-08T08:15:02.885Z,15.32
2022-12-08T08:17:29.832Z,13.65
2022-12-08T08:19:56.863Z,14.30
2022-12-08T08:22:24.911Z,13.90
2022-12-08T08:24:51.651Z,12.30
2022-12-08T08:27:18.304Z,15.70
2022-12-08T08:29:47.171Z,17.38
2022-12-08T08:32:14.549Z,18.50
2022-12-08T08:34:41.112Z,15.05
2022-12-08T08:37:07.738Z,17.92
2022-12-08T08:39:35.784Z,15.25
2022-12-08T08:42:02.346Z,15.82
2022-12-08T08:44:28.980Z,12.88
2022-12-08T08:46:55.656Z,14.52
2022-12-08T08:49:22.320Z,14.90
2022-12-08T08:51:49.120Z,15.48
2022-12-08T08:54:15.759Z,15.63
2022-12-08T08:56:42.370Z,16.58
2022-12-08T08:59:09.663Z,15.43
2022-12-08T09:01:36.386Z,15.20
2022-12-08T09:04:03.284Z,15.43
2022-12-08T09:06:30.131Z,17.08
2022-12-08T09:08:56.726Z,15.40
2022-12-08T09:11:23.759Z,14.20
2022-12-08T09:13:51.760Z,15.38
2022-12-08T09:16:22.100Z,16.67
2022-12-08T09:18:49.514Z,16.13
2022-12-08T09:21:22.720Z,13.32
2022-12-08T09:23:56.491Z,15.20
2022-12-08T09:26:24.029Z,14.82
2022-12-08T09:28:52.536Z,18.23
2022-12-08T09:31:21.096Z,15.05
2022-12-08T09:33:48.876Z,15.05
2022-12-08T09:36:15.467Z,16.77
2022-12-08T09:38:42.169Z,14.52
2022-12-08T09:41:37.561Z,12.10
2022-12-08T09:44:28.939Z,16.00
2022-12-08T09:46:56.568Z,12.48
2022-12-08T09:49:39.430Z,13.70
2022-12-08T09:52:19.665Z,13.88
2022-12-08T09:54:46.302Z,14.48
2022-12-08T09:57:19.234Z,14.50
2022-12-08T09:59:57.640Z,16.08
2022-12-08T10:02:28.118Z,15.80
2022-12-08T10:04:56.543Z,15.37
2022-12-08T10:07:30.748Z,17.45
2022-12-08T10:10:06.509Z,16.45
2022-12-08T10:12:50.374Z,14.52
2022-12-08T10:15:38.739Z,14.57
2022-12-08T10:18:15.052Z,16.85
2022-12-08T10:20:44.215Z,15.68
2022-12-08T10:23:24.467Z,15.32
2022-12-08T10:25:58.946Z,16.35
2022-12-08T10:28:25.595Z,16.42
2022-12-08T10:30:52.251Z,14.88
2022-12-08T10:33:21.758Z,17.10
2022-12-08T10:35:54.046Z,13.82
2022-12-08T10:38:20.658Z,14.30
2022-12-08T10:40:49.691Z,14.57
2022-12-08T10:43:25.823Z,16.40
2022-12-08T10:45:52.704Z,15.00
2022-12-08T10:48:22.546Z,13.43
2022-12-08T10:50:52.382Z,12.15
2022-12-08T10:53:32.115Z,11.70
2022-12-08T10:56:01.665Z,10.63
2022-12-08T10:58:35.728Z,10.50
2022-12-08T11:01:09.575Z,12.02
2022-12-08T11:03:44.884Z,11.10
2022-12-08T11:06:22.498Z,10.50
2022-12-08T11:08:53.893Z,10.07
2022-12-08T11:13:55.841Z,9.18
2022-12-08T11:16:23.351Z,9.15
2022-12-08T11:18:56.988Z,7.68
2022-12-08T11:21:35.431Z,8.35
2022-12-08T11:24:16.703Z,7.45
2022-12-08T11:26:50.092Z,9.05
2022-12-08T11:29:17.386Z,8.73
2022-12-08T11:31:50.076Z,6.28
2022-12-08T11:34:30.712Z,8.02
2022-12-08T11:36:58.561Z,7.50
2022-12-08T11:39:29.760Z,7.45
2022-12-08T11:41:57.857Z,8.65
2022-12-08T11:44:46.309Z,8.27
2022-12-08T11:47:42.347Z,5.80
2022-12-08T11:50:19.630Z,5.82
2022-12-08T11:52:49.706Z,6.60
2022-12-08T11:55:36.949Z,6.05
2022-12-08T11:58:15.727Z,6.18
2022-12-08T12:00:42.380Z,6.55
2022-12-08T12:03:45.608Z,5.85
2022-12-08T12:06:57.372Z,6.50
2022-12-08T12:09:36.351Z,5.68
2022-12-08T12:12:27.525Z,5.55
2022-12-08T12:15:30.700Z,6.82
2022-12-08T12:17:57.258Z,7.07
2022-12-08T12:20:35.991Z,5.78
2022-12-08T12:23:19.720Z,5.90
2022-12-08T12:25:55.222Z,6.55
2022-12-08T12:28:25.348Z,5.38
2022-12-08T12:31:00.840Z,6.93
2022-12-08T12:33:29.955Z,4.82
2022-12-08T12:35:58.630Z,5.10
2022-12-08T12:39:03.993Z,7.50
2022-12-08T12:41:50.638Z,6.65
2022-12-08T12:44:32.736Z,6.10
2022-12-08T12:47:04.592Z,5.88
2022-12-08T12:49:40.462Z,5.07
2022-12-08T12:52:09.715Z,5.18
2022-12-08T12:54:36.296Z,5.00
2022-12-08T12:57:05.457Z,6.63
2022-12-08T12:59:55.488Z,4.53
2022-12-08T13:02:34.018Z,6.75
2022-12-08T13:05:30.508Z,7.25
2022-12-08T13:08:07.729Z,5.45
2022-12-08T13:10:39.467Z,9.85
2022-12-08T13:13:18.005Z,8.43
2022-12-08T13:15:52.465Z,6.03
2022-12-08T13:18:20.985Z,8.13
2022-12-08T13:20:52.920Z,14.18
2022-12-08T13:23:43.459Z,7.25
2022-12-08T13:26:19.325Z,6.93
2022-12-08T13:29:01.343Z,6.72
2022-12-08T13:31:46.783Z,5.30
2022-12-08T13:34:22.740Z,8.43
2022-12-08T13:37:00.166Z,7.35
2022-12-08T13:40:01.625Z,5.97
2022-12-08T13:42:51.167Z,7.95
2022-12-08T13:45:43.590Z,8.95
2022-12-08T13:49:36.577Z,8.65
2022-12-08T13:57:25.987Z,6.50
2022-12-08T13:59:52.699Z,21.60
2022-12-08T14:02:47.136Z,13.20
2022-12-08T14:05:19.043Z,9.75
2022-12-08T14:07:49.898Z,11.73
2022-12-08T14:10:26.978Z,8.68
2022-12-08T14:13:03.736Z,11.32
2022-12-08T14:15:37.837Z,9.27
2022-12-08T14:18:07.093Z,8.80
2022-12-08T14:20:57.897Z,8.38
2022-12-08T14:23:22.665Z,8.45
2022-12-08T14:25:49.311Z,10.23
2022-12-08T14:28:16.662Z,11.70
2022-12-08T14:30:43.374Z,12.88
2022-12-08T14:33:16.742Z,12.75
2022-12-08T14:35:49.163Z,10.35
2022-12-08T14:38:17.814Z,11.68
2022-12-08T14:40:49.799Z,8.65
2022-12-08T14:43:20.716Z,8.68
2022-12-08T14:45:49.136Z,8.65
2022-12-08T14:48:30.920Z,9.13
2022-12-08T14:51:03.485Z,9.55
2022-12-08T14:53:53.502Z,9.13
2022-12-08T14:56:32.678Z,9.35
2022-12-08T14:59:32.374Z,7.22
2022-12-08T15:02:24.130Z,9.65
2022-12-08T15:04:56.845Z,9.15
2022-12-08T15:07:26.658Z,9.70
2022-12-08T15:10:14.774Z,9.68
2022-12-08T15:13:00.268Z,11.25
2022-12-08T15:15:27.623Z,8.93
2022-12-08T15:18:17.104Z,8.40
2022-12-08T15:20:43.986Z,11.73
2022-12-08T15:23:30.614Z,47.25
2022-12-08T15:25:59.070Z,20.15
2022-12-08T15:28:30.379Z,39.45
2022-12-08T15:33:24.641Z,21.35
2022-12-08T15:35:51.647Z,26.27
2022-12-08T15:38:28.887Z,22.35
2022-12-08T15:40:58.669Z,7.50
2022-12-08T15:43:25.400Z,13.98
2022-12-08T15:45:59.527Z,13.05
2022-12-08T15:48:29.368Z,8.85
2022-12-08T15:50:56.607Z,9.07
2022-12-08T15:53:26.063Z,13.38
2022-12-08T15:56:25.934Z,8.70
2022-12-08T15:58:56.606Z,6.70
2022-12-08T16:01:24.434Z,6.82
2022-12-08T16:09:26.128Z,7.68
2022-12-08T16:12:11.442Z,5.63
2022-12-08T16:17:27.065Z,6.88
2022-12-08T16:19:54.290Z,8.90
2022-12-08T16:25:21.826Z,7.65
2022-12-08T16:28:44.798Z,8.52
2022-12-08T16:30:39.739Z,18.15
2022-12-08T16:33:06.307Z,20.75
2022-12-08T16:35:33.166Z,15.63
2022-12-08T16:37:59.790Z,16.17
2022-12-08T16:40:26.448Z,18.48
2022-12-08T16:42:53.363Z,16.98
2022-12-08T16:45:24.313Z,10.52
2022-12-08T16:47:57.038Z,13.82
2022-12-08T16:50:29.256Z,16.38
2022-12-08T16:53:05.565Z,15.30
2022-12-08T16:55:33.022Z,15.07
2022-12-08T16:57:59.767Z,21.27
2022-12-08T17:00:28.507Z,32.40
2022-12-08T17:02:55.746Z,25.63
2022-12-08T17:05:25.072Z,26.98
2022-12-08T17:07:53.334Z,22.15
2022-12-08T17:10:25.066Z,22.65
2022-12-08T17:12:52.600Z,20.92
2022-12-08T17:15:22.157Z,17.80
2022-12-08T17:17:49.549Z,16.70
2022-12-08T17:20:19.224Z,18.90
2022-12-08T17:22:46.932Z,16.27
2022-12-08T17:25:13.986Z,18.05
2022-12-08T17:27:41.388Z,15.95
2022-12-08T17:30:11.070Z,17.35
2022-12-08T17:32:38.207Z,18.33
2022-12-08T17:35:05.974Z,15.82
2022-12-08T17:37:32.768Z,17.65
2022-12-08T17:39:59.376Z,18.67
2022-12-08T17:42:27.166Z,20.23
2022-12-08T17:44:54.236Z,20.88
2022-12-08T17:47:20.824Z,17.23
2022-12-08T17:49:47.419Z,15.82
2022-12-08T17:52:14.035Z,14.32
2022-12-08T17:54:40.713Z,18.40
2022-12-08T17:57:07.362Z,20.23
2022-12-08T17:59:33.965Z,20.13
2022-12-08T18:02:04.422Z,21.90
2022-12-08T18:04:31.177Z,18.03
2022-12-08T18:07:01.296Z,24.35
2022-12-08T18:09:31.166Z,21.20
2022-12-08T18:11:58.057Z,20.13
2022-12-08T18:14:24.896Z,21.05
2022-12-08T18:16:51.669Z,19.65
2022-12-08T18:19:18.617Z,23.67
2022-12-08T18:21:45.213Z,24.27
2022-12-08T18:24:22.010Z,23.30
2022-12-08T18:26:50.597Z,25.38
2022-12-08T18:29:17.418Z,25.02
2022-12-08T18:31:43.997Z,26.45
2022-12-08T18:34:10.576Z,23.90
2022-12-08T18:36:37.161Z,24.45
2022-12-08T18:39:08.907Z,24.92
2022-12-08T18:41:40.379Z,25.95
2022-12-08T18:44:08.814Z,27.80
2022-12-08T18:46:35.727Z,23.38
2022-12-08T18:49:02.348Z,27.67
2022-12-08T18:51:28.955Z,28.38
2022-12-08T18:53:55.503Z,28.00
2022-12-08T18:56:31.428Z,25.95
2022-12-08T18:59:03.624Z,26.30
2022-12-08T19:01:35.481Z,30.02
2022-12-08T19:04:27.288Z,26.05
2022-12-08T19:06:52.748Z,31.75
2022-12-08T19:09:20.007Z,30.70
2022-12-08T19:11:46.815Z,24.63
2022-12-08T19:14:13.357Z,24.27
2022-12-08T19:16:39.979Z,25.65
2022-12-08T19:19:06.585Z,26.92
2022-12-08T19:21:33.431Z,27.15
2022-12-08T19:24:00.359Z,28.58
2022-12-08T19:26:28.354Z,29.77
2022-12-08T19:28:55.017Z,28.70
2022-12-08T19:31:21.764Z,26.80
2022-12-08T19:33:48.363Z,36.45
2022-12-08T19:36:18.292Z,22.25
2022-12-08T19:39:04.002Z,24.58
2022-12-08T19:41:49.172Z,24.90
2022-12-08T19:44:42.753Z,24.65
2022-12-08T19:47:09.655Z,31.70
2022-12-08T19:49:36.593Z,31.00
2022-12-08T19:52:03.956Z,30.15
2022-12-08T19:54:30.560Z,29.05
2022-12-08T19:56:57.340Z,29.33
2022-12-08T19:59:26.448Z,46.30
2022-12-08T20:01:55.759Z,29.67
2022-12-08T20:04:23.766Z,28.40
2022-12-08T20:06:52.381Z,25.52
2022-12-08T20:09:19.790Z,25.15
2022-12-08T20:11:46.726Z,23.65
2022-12-08T20:14:13.324Z,26.15
2022-12-08T20:16:41.740Z,24.20
2022-12-08T20:19:09.086Z,22.77
2022-12-08T20:21:35.629Z,22.65
2022-12-08T20:24:02.245Z,21.50
2022-12-08T20:26:28.832Z,22.85
2022-12-08T20:28:55.439Z,22.23
2022-12-08T20:31:27.296Z,21.23
2022-12-08T20:33:55.376Z,19.73
2022-12-08T20:36:22.810Z,19.13
2022-12-08T20:38:51.481Z,21.60
2022-12-08T20:41:19.224Z,21.27
2022-12-08T20:43:47.154Z,21.27
2022-12-08T20:46:16.220Z,19.42
2022-12-08T20:48:43.956Z,21.08
2022-12-08T20:51:18.897Z,37.08
2022-12-08T20:53:46.109Z,25.05
2022-12-08T20:56:21.268Z,24.02
2022-12-08T20:58:49.191Z,22.55
2022-12-08T21:01:18.724Z,19.90
2022-12-08T21:03:46.156Z,23.45
2022-12-08T21:06:13.411Z,21.40
2022-12-08T21:08:41.409Z,20.00
2022-12-08T21:11:09.460Z,19.60
2022-12-08T21:13:39.523Z,17.92
2022-12-08T21:16:09.143Z,22.33
2022-12-08T21:18:39.624Z,23.70
2022-12-08T21:21:10.705Z,23.05
2022-12-08T21:23:37.796Z,23.15
2022-12-08T21:26:14.366Z,26.08
2022-12-08T21:28:41.935Z,21.80
2022-12-08T21:31:10.261Z,23.27
2022-12-08T21:33:37.241Z,25.48
2022-12-08T21:36:20.398Z,26.30
2022-12-08T21:38:47.631Z,24.20
2022-12-08T21:41:37.270Z,25.98
2022-12-08T21:44:05.071Z,28.10
2022-12-08T21:46:32.082Z,29.25
2022-12-08T21:48:58.897Z,26.73
2022-12-08T21:51:25.775Z,26.80
2022-12-08T21:53:52.610Z,29.42
2022-12-08T21:56:20.789Z,34.85
2022-12-08T21:58:47.424Z,30.80
2022-12-08T22:01:16.620Z,34.58
2022-12-08T22:03:43.650Z,33.00
2022-12-08T22:06:12.817Z,32.42
2022-12-08T22:08:39.913Z,29.95
2022-12-08T22:11:08.098Z,30.50
2022-12-08T22:13:36.620Z,31.95
2022-12-08T22:16:06.681Z,30.88
2022-12-08T22:18:34.670Z,30.80
2022-12-08T22:21:02.540Z,30.02
2022-12-08T22:23:29.269Z,27.10
2022-12-08T22:26:00.077Z,35.33
2022-12-08T22:28:29.954Z,31.20
2022-12-08T22:30:56.653Z,29.38
2022-12-08T22:33:23.334Z,29.48
2022-12-08T22:36:06.293Z,25.20
2022-12-08T22:38:36.542Z,26.52
2022-12-08T22:41:04.895Z,28.23
2022-12-08T22:43:33.747Z,26.88
2022-12-08T22:46:00.692Z,28.92
2022-12-08T22:48:28.064Z,30.75
2022-12-08T22:50:59.683Z,30.02
2022-12-08T22:53:26.872Z,26.83
2022-12-08T22:55:53.805Z,27.77
2022-12-08T22:58:20.508Z,26.50
2022-12-08T23:00:47.155Z,27.55
2022-12-08T23:03:13.802Z,31.52
2022-12-08T23:05:40.997Z,31.23
2022-12-08T23:08:08.517Z,29.90
2022-12-08T23:10:35.813Z,29.25
2022-12-08T23:13:05.284Z,26.98
2022-12-08T23:15:32.100Z,31.42
2022-12-08T23:17:58.820Z,28.35
2022-12-08T23:20:25.775Z,31.05
2022-12-08T23:22:52.554Z,30.20
2022-12-08T23:25:22.117Z,29.42
2022-12-08T23:27:48.693Z,27.77
2022-12-08T23:30:15.845Z,29.75
2022-12-08T23:32:42.803Z,25.02
2022-12-08T23:35:09.679Z,25.13
2022-12-08T23:37:36.571Z,26.67
2022-12-08T23:40:05.367Z,25.38
2022-12-08T23:42:33.934Z,27.75
2022-12-08T23:45:00.798Z,26.23
2022-12-08T23:47:28.988Z,24.95
2022-12-08T23:49:55.681Z,28.70
2022-12-08T23:52:22.260Z,25.77
2022-12-08T23:54:54.599Z,25.48
2022-12-08T23:57:21.789Z,21.60
2022-12-08T23:59:48.374Z,31.77
